createdAt,value
2022-12-22T00:00:09.263Z,12.60
2022-12-22T00:03:00.040Z,12.23
2022-12-22T00:05:45.942Z,11.82
2022-12-22T00:08:31.635Z,12.25
2022-12-22T00:11:18.225Z,11.80
2022-12-22T00:14:05.341Z,13.05
2022-12-22T00:16:56.042Z,12.95
2022-12-22T00:19:43.601Z,12.40
2022-12-22T00:22:40.045Z,12.43
2022-12-22T00:25:26.120Z,12.05
2022-12-22T00:28:12.717Z,12.90
2022-12-22T00:30:58.375Z,12.20
2022-12-22T00:33:44.386Z,11.23
2022-12-22T00:36:31.907Z,12.18
2022-12-22T00:39:36.582Z,12.93
2022-12-22T00:42:27.956Z,11.60
2022-12-22T00:45:13.463Z,11.52
2022-12-22T00:48:05.995Z,11.45
2022-12-22T00:51:11.975Z,11.15
2022-12-22T00:54:21.086Z,10.60
2022-12-22T00:57:20.446Z,10.38
2022-12-22T01:00:08.061Z,10.85
2022-12-22T01:02:53.933Z,10.50
2022-12-22T01:05:41.290Z,10.45
2022-12-22T01:08:34.631Z,9.88
2022-12-22T01:11:21.249Z,9.50
2022-12-22T01:14:12.817Z,10.57
2022-12-22T01:17:00.388Z,9.13
2022-12-22T01:19:45.910Z,10.50
2022-12-22T01:22:34.080Z,11.00
2022-12-22T01:25:19.729Z,10.43
2022-12-22T01:28:05.274Z,10.07
2022-12-22T01:30:50.803Z,11.15
2022-12-22T01:33:36.089Z,10.70
2022-12-22T01:36:23.152Z,10.40
2022-12-22T01:39:18.154Z,10.40
2022-12-22T01:42:05.163Z,9.18
2022-12-22T01:44:51.798Z,10.43
2022-12-22T01:47:46.358Z,10.10
2022-12-22T01:50:44.307Z,9.95
2022-12-22T01:53:48.493Z,9.88
2022-12-22T01:56:35.066Z,10.07
2022-12-22T01:59:23.594Z,10.25
2022-12-22T02:02:10.307Z,9.57
2022-12-22T02:05:01.725Z,9.48
2022-12-22T02:08:07.073Z,9.70
2022-12-22T02:11:51.102Z,9.07
2022-12-22T02:14:53.485Z,8.80
2022-12-22T02:18:02.915Z,8.70
2022-12-22T02:21:19.928Z,8.90
2022-12-22T02:24:27.226Z,9.07
2022-12-22T02:27:15.729Z,8.38
2022-12-22T02:30:09.997Z,7.72
2022-12-22T02:33:05.225Z,8.13
2022-12-22T02:36:14.989Z,8.35
2022-12-22T02:39:12.527Z,9.20
2022-12-22T02:42:20.728Z,8.50
2022-12-22T02:45:33.965Z,8.55
2022-12-22T02:49:27.533Z,9.18
2022-12-22T02:52:22.067Z,9.13
2022-12-22T02:55:07.550Z,8.57
2022-12-22T02:57:53.120Z,8.60
2022-12-22T03:00:38.681Z,8.93
2022-12-22T03:03:24.342Z,8.70
2022-12-22T03:06:10.226Z,8.95
2022-12-22T03:08:55.715Z,8.95
2022-12-22T03:11:41.345Z,8.95
2022-12-22T03:14:26.930Z,9.32
2022-12-22T03:17:14.315Z,8.82
2022-12-22T03:20:05.951Z,8.35
2022-12-22T03:22:51.668Z,8.32
2022-12-22T03:25:42.971Z,8.35
2022-12-22T03:28:10.142Z,9.02
2022-12-22T03:30:36.933Z,8.38
2022-12-22T03:33:03.963Z,7.38
2022-12-22T03:35:30.843Z,7.95
2022-12-22T03:37:57.859Z,8.07
2022-12-22T03:40:25.722Z,7.70
2022-12-22T03:43:13.112Z,7.60
2022-12-22T03:46:00.964Z,7.20
2022-12-22T03:48:33.597Z,6.70
2022-12-22T03:51:07.972Z,6.88
2022-12-22T03:53:34.724Z,7.18
2022-12-22T03:56:07.710Z,6.35
2022-12-22T03:58:36.196Z,6.68
2022-12-22T04:01:07.837Z,5.85
2022-12-22T04:03:34.849Z,6.90
2022-12-22T04:06:02.674Z,7.95
2022-12-22T04:08:29.683Z,7.57
2022-12-22T04:11:15.072Z,7.40
2022-12-22T04:13:47.565Z,6.50
2022-12-22T04:16:17.458Z,5.53
2022-12-22T04:18:46.479Z,6.55
2022-12-22T04:21:13.540Z,7.13
2022-12-22T04:23:40.619Z,6.85
2022-12-22T04:26:07.681Z,7.60
2022-12-22T04:28:37.627Z,7.72
2022-12-22T04:31:05.469Z,9.30
2022-12-22T04:33:33.272Z,9.55
2022-12-22T04:36:06.732Z,8.80
2022-12-22T04:38:38.071Z,9.02
2022-12-22T04:41:05.438Z,8.98
2022-12-22T04:43:34.191Z,8.10
2022-12-22T04:46:03.061Z,7.65
2022-12-22T04:48:31.609Z,8.80
2022-12-22T04:51:01.252Z,8.07
2022-12-22T04:53:30.429Z,7.57
2022-12-22T04:56:06.077Z,8.82
2022-12-22T04:58:36.455Z,8.35
2022-12-22T05:01:15.512Z,8.48
2022-12-22T05:03:45.574Z,6.93
2022-12-22T05:06:13.080Z,8.65
2022-12-22T05:08:39.936Z,7.93
2022-12-22T05:11:07.175Z,9.38
2022-12-22T05:13:34.044Z,8.80
2022-12-22T05:16:11.083Z,8.48
2022-12-22T05:18:38.948Z,9.45
2022-12-22T05:21:16.302Z,9.30
2022-12-22T05:23:45.655Z,9.77
2022-12-22T05:26:17.937Z,9.43
2022-12-22T05:28:52.810Z,10.23
2022-12-22T05:31:24.697Z,10.15
2022-12-22T05:33:52.268Z,10.50
2022-12-22T05:36:19.730Z,11.13
2022-12-22T05:38:46.702Z,10.93
2022-12-22T05:41:14.093Z,11.90
2022-12-22T05:43:42.023Z,12.38
2022-12-22T05:46:11.612Z,11.38
2022-12-22T05:48:44.194Z,12.98
2022-12-22T05:51:11.068Z,12.60
2022-12-22T05:53:39.300Z,11.60
2022-12-22T05:56:09.020Z,12.00
2022-12-22T05:58:38.952Z,12.75
2022-12-22T06:01:05.917Z,12.23
2022-12-22T06:03:34.121Z,12.90
2022-12-22T06:06:07.647Z,12.70
2022-12-22T06:08:35.422Z,12.77
2022-12-22T06:11:02.445Z,12.68
2022-12-22T06:13:35.279Z,12.32
2022-12-22T06:16:02.344Z,11.35
2022-12-22T06:18:29.322Z,12.10
2022-12-22T06:20:57.243Z,12.25
2022-12-22T06:23:24.219Z,13.38
2022-12-22T06:25:59.843Z,13.07
2022-12-22T06:28:28.780Z,14.88
2022-12-22T06:30:58.518Z,28.90
2022-12-22T06:35:58.645Z,14.48
2022-12-22T06:38:27.592Z,15.95
2022-12-22T06:40:54.453Z,14.93
2022-12-22T06:43:21.117Z,17.38
2022-12-22T06:45:48.180Z,16.42
2022-12-22T06:48:16.112Z,18.00
2022-12-22T06:50:43.214Z,17.40
2022-12-22T06:53:11.540Z,19.25
2022-12-22T06:55:38.714Z,19.45
2022-12-22T06:58:06.032Z,19.75
2022-12-22T07:00:33.690Z,20.52
2022-12-22T07:03:00.817Z,21.50
2022-12-22T07:05:28.011Z,22.70
2022-12-22T07:07:54.985Z,21.35
2022-12-22T07:10:41.983Z,23.05
2022-12-22T07:13:19.659Z,22.48
2022-12-22T07:15:52.114Z,24.38
2022-12-22T07:18:24.648Z,24.58
2022-12-22T07:20:53.702Z,23.60
2022-12-22T07:23:20.706Z,23.42
2022-12-22T07:25:47.765Z,24.10
2022-12-22T07:28:20.286Z,23.63
2022-12-22T07:30:47.955Z,24.08
2022-12-22T07:33:15.047Z,25.55
2022-12-22T07:35:42.100Z,24.45
2022-12-22T07:38:09.129Z,24.80
2022-12-22T07:40:41.604Z,24.98
2022-12-22T07:43:08.931Z,23.55
2022-12-22T07:45:36.426Z,22.52
2022-12-22T07:48:23.906Z,21.02
2022-12-22T07:50:50.571Z,21.30
2022-12-22T07:53:17.619Z,18.67
2022-12-22T07:55:44.706Z,19.25
2022-12-22T07:58:11.720Z,20.25
2022-12-22T08:00:38.378Z,19.55
2022-12-22T08:03:06.352Z,20.23
2022-12-22T08:05:33.261Z,21.52
2022-12-22T08:08:00.312Z,21.88
2022-12-22T08:10:28.230Z,21.80
2022-12-22T08:12:55.320Z,20.98
2022-12-22T08:15:22.288Z,21.25
2022-12-22T08:17:49.343Z,23.75
2022-12-22T08:20:16.370Z,38.88
2022-12-22T08:22:43.421Z,29.10
2022-12-22T08:25:10.526Z,25.33
2022-12-22T08:27:43.169Z,19.05
2022-12-22T08:30:11.027Z,29.40
2022-12-22T08:32:40.097Z,31.95
2022-12-22T08:35:08.629Z,23.75
2022-12-22T08:37:41.416Z,21.33
2022-12-22T08:40:20.603Z,21.05
2022-12-22T08:42:49.803Z,24.70
2022-12-22T08:45:16.866Z,22.95
2022-12-22T08:47:43.851Z,23.02
2022-12-22T08:50:11.230Z,26.75
2022-12-22T08:52:38.286Z,34.28
2022-12-22T08:55:05.781Z,27.75
2022-12-22T08:57:32.860Z,27.00
2022-12-22T08:59:59.545Z,31.25
2022-12-22T09:02:26.713Z,33.30
2022-12-22T09:04:53.930Z,28.00
2022-12-22T09:07:20.708Z,28.65
2022-12-22T09:09:47.727Z,23.38
2022-12-22T09:12:14.722Z,25.40
2022-12-22T09:14:41.584Z,23.08
2022-12-22T09:17:08.616Z,22.48
2022-12-22T09:19:35.906Z,21.00
2022-12-22T09:22:02.929Z,21.73
2022-12-22T09:24:29.949Z,21.30
2022-12-22T09:26:57.085Z,20.40
2022-12-22T09:29:24.063Z,21.20
2022-12-22T09:31:51.146Z,22.08
2022-12-22T09:34:18.819Z,31.70
2022-12-22T09:36:46.358Z,22.98
2022-12-22T09:39:13.158Z,20.75
2022-12-22T09:41:55.385Z,28.23
2022-12-22T09:44:36.583Z,17.67
2022-12-22T09:47:17.635Z,23.67
2022-12-22T09:49:45.004Z,17.23
2022-12-22T09:52:25.431Z,19.55
2022-12-22T09:54:52.462Z,17.05
2022-12-22T09:57:20.098Z,16.85
2022-12-22T09:59:47.366Z,17.40
2022-12-22T10:02:34.488Z,16.38
2022-12-22T10:05:28.311Z,16.35
2022-12-22T10:08:01.731Z,15.63
2022-12-22T10:10:32.418Z,13.48
2022-12-22T10:13:02.183Z,13.55
2022-12-22T10:18:12.573Z,10.65
2022-12-22T10:20:40.797Z,8.82
2022-12-22T10:23:16.109Z,10.40
2022-12-22T10:29:00.198Z,7.30
2022-12-22T10:31:35.447Z,5.93
2022-12-22T10:34:17.549Z,6.30
2022-12-22T10:37:00.028Z,7.65
2022-12-22T10:39:29.940Z,6.72
2022-12-22T10:42:01.402Z,6.45
2022-12-22T10:44:33.970Z,6.68
2022-12-22T10:47:17.122Z,18.75
2022-12-22T10:49:47.138Z,16.48
2022-12-22T10:52:30.435Z,4.65
2022-12-22T10:55:17.802Z,3.92
2022-12-22T10:57:44.819Z,3.05
2022-12-22T11:00:28.013Z,3.40
2022-12-22T11:03:00.372Z,3.67
2022-12-22T11:05:28.117Z,4.15
2022-12-22T11:07:55.748Z,3.97
2022-12-22T11:10:35.727Z,3.83
2022-12-22T11:13:33.203Z,4.20
2022-12-22T11:16:00.039Z,4.90
2022-12-22T11:18:55.017Z,3.60
2022-12-22T11:21:51.319Z,4.95
2022-12-22T11:24:37.203Z,3.92
2022-12-22T11:27:31.346Z,4.05
2022-12-22T11:30:10.817Z,2.95
2022-12-22T11:33:09.448Z,3.55
2022-12-22T11:36:13.898Z,4.57
2022-12-22T11:38:55.686Z,3.75
2022-12-22T11:41:42.397Z,2.47
2022-12-22T11:44:53.864Z,3.28
2022-12-22T11:47:44.413Z,7.10
2022-12-22T11:50:58.771Z,4.93
2022-12-22T11:53:43.534Z,11.40
2022-12-22T11:56:19.650Z,10.13
2022-12-22T11:58:49.590Z,14.48
2022-12-22T12:01:28.290Z,21.10
2022-12-22T12:04:23.629Z,7.63
2022-12-22T12:07:04.162Z,10.73
2022-12-22T12:09:39.694Z,5.60
2022-12-22T12:12:27.355Z,12.93
2022-12-22T12:15:18.366Z,7.25
2022-12-22T12:18:09.071Z,26.00
2022-12-22T12:20:42.191Z,10.23
2022-12-22T12:23:27.045Z,25.40
2022-12-22T12:26:18.963Z,3.00
2022-12-22T12:29:13.586Z,5.07
2022-12-22T12:32:03.438Z,5.28
2022-12-22T12:34:35.039Z,2.08
2022-12-22T12:37:27.167Z,2.95
2022-12-22T12:40:26.534Z,2.63
2022-12-22T12:42:55.289Z,3.58
2022-12-22T12:45:45.217Z,3.55
2022-12-22T12:48:21.203Z,3.53
2022-12-22T12:50:49.411Z,4.85
2022-12-22T12:53:17.832Z,4.63
2022-12-22T12:55:51.904Z,4.55
2022-12-22T12:58:40.115Z,20.58
2022-12-22T13:01:33.353Z,10.75
2022-12-22T13:04:03.480Z,6.50
2022-12-22T13:06:57.957Z,8.10
2022-12-22T13:12:55.241Z,8.25
2022-12-22T13:15:32.931Z,15.65
2022-12-22T13:18:21.078Z,25.60
2022-12-22T13:21:18.623Z,5.43
2022-12-22T13:24:24.129Z,4.75
2022-12-22T13:26:54.393Z,8.68
2022-12-22T13:29:39.258Z,14.55
2022-12-22T13:32:27.634Z,6.55
2022-12-22T13:35:44.832Z,6.13
2022-12-22T13:38:34.810Z,5.95
2022-12-22T13:41:27.173Z,6.85
2022-12-22T13:43:58.509Z,7.55
2022-12-22T13:46:27.086Z,5.78
2022-12-22T13:48:56.827Z,5.35
2022-12-22T13:51:32.549Z,6.07
2022-12-22T13:54:13.201Z,5.03
2022-12-22T13:56:54.590Z,4.18
2022-12-22T13:59:43.225Z,5.95
2022-12-22T14:02:10.363Z,5.97
2022-12-22T14:04:39.227Z,5.07
2022-12-22T14:07:14.049Z,7.55
2022-12-22T14:09:54.895Z,7.90
2022-12-22T14:12:28.575Z,9.90
2022-12-22T14:14:56.987Z,5.68
2022-12-22T14:17:28.139Z,14.48
2022-12-22T14:19:57.196Z,7.47
2022-12-22T14:22:37.546Z,7.90
2022-12-22T14:25:14.207Z,8.68
2022-12-22T14:27:45.999Z,6.97
2022-12-22T14:30:19.269Z,6.00
2022-12-22T14:32:54.777Z,10.23
2022-12-22T14:35:22.314Z,15.02
2022-12-22T14:38:10.510Z,8.23
2022-12-22T14:40:41.934Z,15.63
2022-12-22T14:43:18.094Z,11.90
2022-12-22T14:45:49.727Z,10.13
2022-12-22T14:48:32.077Z,14.68
2022-12-22T14:50:59.305Z,7.78
2022-12-22T14:53:32.245Z,10.02
2022-12-22T14:55:59.226Z,16.13
2022-12-22T14:58:38.763Z,12.35
2022-12-22T15:01:22.254Z,7.53
2022-12-22T15:04:00.698Z,11.15
2022-12-22T15:06:27.491Z,13.07
2022-12-22T15:09:11.634Z,10.75
2022-12-22T15:11:44.936Z,10.07
2022-12-22T15:14:17.493Z,8.25
2022-12-22T15:16:45.486Z,11.25
2022-12-22T15:19:18.398Z,9.70
2022-12-22T15:21:45.411Z,11.85
2022-12-22T15:24:15.518Z,11.10
2022-12-22T15:26:43.114Z,9.52
2022-12-22T15:29:09.852Z,12.40
2022-12-22T15:31:38.780Z,10.15
2022-12-22T15:34:30.737Z,9.63
2022-12-22T15:36:58.666Z,12.02
2022-12-22T15:39:25.910Z,15.20
2022-12-22T15:41:52.620Z,12.77
2022-12-22T15:44:19.655Z,10.05
2022-12-22T15:46:56.224Z,11.35
2022-12-22T15:49:26.578Z,13.35
2022-12-22T15:52:00.470Z,12.63
2022-12-22T15:54:29.622Z,12.63
2022-12-22T15:56:56.637Z,14.70
2022-12-22T15:59:28.230Z,12.68
2022-12-22T16:02:01.434Z,14.57
2022-12-22T16:04:29.962Z,14.02
2022-12-22T16:06:58.620Z,19.67
2022-12-22T16:09:39.579Z,9.88
2022-12-22T16:12:14.332Z,10.70
2022-12-22T16:14:49.737Z,43.55
2022-12-22T16:17:20.772Z,9.50
2022-12-22T16:19:48.523Z,12.10
2022-12-22T16:22:20.388Z,21.90
2022-12-22T16:24:50.089Z,19.00
2022-12-22T16:27:17.938Z,8.10
2022-12-22T16:29:48.589Z,12.30
2022-12-22T16:32:26.619Z,11.90
2022-12-22T16:35:16.550Z,12.57
2022-12-22T16:37:43.733Z,8.80
2022-12-22T16:40:11.983Z,10.32
2022-12-22T16:45:31.897Z,16.35
2022-12-22T16:48:05.537Z,8.75
2022-12-22T16:50:38.399Z,10.50
2022-12-22T16:53:06.425Z,8.95
2022-12-22T16:55:35.854Z,8.60
2022-12-22T16:58:12.896Z,9.18
2022-12-22T17:00:43.876Z,8.60
2022-12-22T17:03:21.378Z,9.95
2022-12-22T17:05:55.721Z,9.10
2022-12-22T17:08:34.405Z,8.02
2022-12-22T17:11:10.455Z,7.05
2022-12-22T17:13:39.263Z,8.52
2022-12-22T17:16:09.361Z,7.80
2022-12-22T17:18:36.678Z,8.82
2022-12-22T17:21:05.745Z,10.18
2022-12-22T17:23:45.112Z,7.53
2022-12-22T17:26:16.346Z,7.32
2022-12-22T17:28:45.436Z,6.75
2022-12-22T17:31:20.186Z,6.13
2022-12-22T17:33:47.509Z,7.13
2022-12-22T17:36:41.765Z,6.32
2022-12-22T17:39:15.128Z,7.80
2022-12-22T17:41:43.264Z,7.28
2022-12-22T17:44:28.336Z,6.88
2022-12-22T17:46:58.437Z,5.82
2022-12-22T17:49:26.208Z,5.90
2022-12-22T17:51:53.311Z,7.13
2022-12-22T17:54:27.276Z,5.53
2022-12-22T17:57:03.216Z,7.80
2022-12-22T17:59:31.205Z,3.67
2022-12-22T18:01:59.151Z,14.60
2022-12-22T18:04:29.346Z,20.02
2022-12-22T18:06:58.945Z,5.55
2022-12-22T18:09:26.593Z,12.90
2022-12-22T18:11:56.631Z,10.68
2022-12-22T18:14:25.445Z,5.57
2022-12-22T18:16:52.524Z,7.65
2022-12-22T18:19:20.708Z,6.18
2022-12-22T18:21:48.120Z,7.22
2022-12-22T18:24:17.327Z,7.22
2022-12-22T18:26:46.814Z,7.15
2022-12-22T18:29:18.186Z,6.72
2022-12-22T18:31:45.273Z,5.82
2022-12-22T18:34:15.267Z,7.55
2022-12-22T18:36:47.635Z,4.43
2022-12-22T18:39:21.525Z,5.80
2022-12-22T18:41:54.211Z,4.80
2022-12-22T18:44:26.944Z,4.30
2022-12-22T18:46:54.759Z,6.30
2022-12-22T18:49:21.707Z,4.97
2022-12-22T18:51:51.628Z,5.25
2022-12-22T18:54:36.744Z,5.95
2022-12-22T18:57:16.405Z,4.75
2022-12-22T18:59:43.962Z,4.13
2022-12-22T19:02:20.069Z,4.13
2022-12-22T19:04:49.493Z,6.05
2022-12-22T19:07:19.803Z,4.78
2022-12-22T19:09:48.856Z,9.35
2022-12-22T19:12:18.380Z,5.38
2022-12-22T19:14:49.656Z,7.88
2022-12-22T19:17:28.568Z,14.90
2022-12-22T19:20:18.931Z,12.93
2022-12-22T19:23:17.962Z,13.43
2022-12-22T19:25:46.720Z,21.85
2022-12-22T19:28:23.488Z,8.90
2022-12-22T19:30:53.631Z,6.13
2022-12-22T19:33:38.558Z,5.20
2022-12-22T19:36:07.582Z,4.90
2022-12-22T19:38:38.026Z,8.67
2022-12-22T19:41:43.419Z,9.35
2022-12-22T19:44:30.370Z,5.90
2022-12-22T19:47:01.942Z,4.78
2022-12-22T19:49:33.185Z,5.63
2022-12-22T19:52:01.885Z,8.25
2022-12-22T19:54:29.016Z,9.05
2022-12-22T19:56:57.149Z,11.05
2022-12-22T19:59:46.317Z,6.68
2022-12-22T20:02:30.165Z,5.28
2022-12-22T20:04:57.945Z,6.63
2022-12-22T20:07:26.840Z,6.65
2022-12-22T20:10:02.407Z,7.63
2022-12-22T20:12:31.260Z,7.90
2022-12-22T20:14:59.247Z,5.90
2022-12-22T20:17:27.423Z,7.75
2022-12-22T20:19:55.104Z,10.55
2022-12-22T20:22:24.184Z,6.53
2022-12-22T20:24:54.431Z,6.95
2022-12-22T20:27:31.452Z,6.20
2022-12-22T20:30:04.605Z,8.30
2022-12-22T20:32:31.690Z,8.20
2022-12-22T20:34:58.411Z,11.95
2022-12-22T20:37:30.128Z,20.17
2022-12-22T20:45:36.495Z,7.53
2022-12-22T20:50:38.502Z,6.82
2022-12-22T20:53:06.292Z,8.70
2022-12-22T20:55:34.099Z,7.43
2022-12-22T20:58:02.149Z,7.88
2022-12-22T21:00:29.190Z,7.28
2022-12-22T21:02:56.199Z,8.18
2022-12-22T21:05:24.348Z,6.70
2022-12-22T21:07:53.066Z,8.20
2022-12-22T21:10:23.668Z,24.52
2022-12-22T21:12:56.203Z,11.00
2022-12-22T21:15:27.999Z,9.55
2022-12-22T21:17:58.758Z,7.25
2022-12-22T21:20:28.921Z,13.35
2022-12-22T21:25:25.645Z,7.40
2022-12-22T21:30:27.776Z,9.57
2022-12-22T21:32:57.885Z,8.88
2022-12-22T21:35:38.539Z,9.68
2022-12-22T21:38:05.770Z,9.70
2022-12-22T21:40:34.655Z,9.77
2022-12-22T21:43:01.691Z,8.80
2022-12-22T21:45:42.670Z,10.50
2022-12-22T21:48:18.613Z,9.40
2022-12-22T21:50:52.291Z,10.20
2022-12-22T21:53:26.316Z,9.10
2022-12-22T21:55:55.156Z,9.73
2022-12-22T21:58:29.831Z,9.52
2022-12-22T22:00:56.536Z,9.30
2022-12-22T22:03:32.844Z,9.75
2022-12-22T22:06:08.663Z,9.77
2022-12-22T22:08:54.573Z,9.98
2022-12-22T22:11:23.845Z,13.50
2022-12-22T22:13:56.806Z,10.43
2022-12-22T22:16:33.659Z,9.80
2022-12-22T22:19:00.689Z,11.48
2022-12-22T22:21:42.903Z,10.63
2022-12-22T22:24:13.608Z,10.77
2022-12-22T22:26:49.092Z,9.82
2022-12-22T22:29:26.179Z,10.98
2022-12-22T22:35:11.613Z,10.30
2022-12-22T22:37:39.812Z,9.25
2022-12-22T22:40:15.936Z,11.20
2022-12-22T22:42:43.692Z,10.00
2022-12-22T22:45:23.805Z,9.32
2022-12-22T22:50:28.636Z,9.77
2022-12-22T22:52:58.537Z,10.43
2022-12-22T22:57:58.708Z,11.18
2022-12-22T23:00:31.558Z,9.40
2022-12-22T23:03:01.516Z,9.35
2022-12-22T23:05:36.061Z,9.07
2022-12-22T23:08:23.064Z,8.52
2022-12-22T23:10:55.496Z,9.77
2022-12-22T23:16:10.987Z,7.82
2022-12-22T23:38:15.591Z,8.70
2022-12-22T23:40:53.455Z,8.60
2022-12-22T23:43:56.112Z,10.15
2022-12-22T23:49:04.351Z,7.97
2022-12-22T23:54:08.545Z,7.80
2022-12-22T23:56:37.209Z,8.03
2022-12-22T23:59:07.118Z,7.95
